Alleghenyville, Pennsylvania
Current Conditions -  °F | °C
As of 7:54 PM on Monday 20 Oct 2014 (Local Time) from KRDG Reporting Station
Clear Clear  
Wind Chill: 57°   Ceiling: Unl
Heat Index: 57°   Visibility: 10mi
Dew Point: 42°   Wind: 0mph
Humidity: 57%   Direction: NA
Pressure: 29.94"   Gusts: NA
Location:  40.2411°N, 75.9752°W
Report Text: KRDG 202354Z AUTO 00000KT 10SM CLR 14/06 A2994 RMK AO2 SLP146 T01390056 10167 20133 56003
Loading
Personal Weather Stations






























Interactive Weather Map
Tropical Storm Tracking
New forecast layout! Learn more

10-Day Weather Forecast

Advertisements
Track Severe Weather on mobile